ZSMPI FAGM-FXMU
Flight info
| Callsign | ZSMPI |
|---|---|
| Flight time | 0h 48m |
| Altitude | 26000 |
| Route | IXEKI |
| Aircraft | B350/L-SBGRW/S |
Departure
| Time | 2026-04-21 18:17 |
|---|---|
| Airport | Rand Airport (FAGM) |
Arrival
| Time | 2026-04-21 19:05 |
|---|---|
| Airport | Mejametalana Air Base (FXMU) |
| Time | Latitude | Longitude | Altitude | Speed | Heading |
|---|---|---|---|---|---|
| 2026-04-21 18:08 | -26.24050 | 28.15163 | 5494 ft | 0 kts | 197° |
| 2026-04-21 18:12 | -26.24052 | 28.15162 | 5494 ft | 2 kts | 200° |
| 2026-04-21 18:13 | -26.24075 | 28.15141 | 5494 ft | 6 kts | 220° |
| 2026-04-21 18:13 | -26.24118 | 28.15146 | 5494 ft | 7 kts | 158° |
| 2026-04-21 18:13 | -26.24166 | 28.15176 | 5494 ft | 9 kts | 147° |
| 2026-04-21 18:13 | -26.24220 | 28.15203 | 5495 ft | 8 kts | 158° |
| 2026-04-21 18:14 | -26.24328 | 28.15254 | 5497 ft | 9 kts | 158° |
| 2026-04-21 18:14 | -26.24389 | 28.15283 | 5497 ft | 10 kts | 157° |
| 2026-04-21 18:14 | -26.24456 | 28.15314 | 5497 ft | 11 kts | 155° |
| 2026-04-21 18:15 | -26.24526 | 28.15347 | 5498 ft | 11 kts | 157° |
| 2026-04-21 18:15 | -26.24596 | 28.15380 | 5499 ft | 11 kts | 156° |
| 2026-04-21 18:15 | -26.24662 | 28.15412 | 5499 ft | 11 kts | 155° |
| 2026-04-21 18:15 | -26.24723 | 28.15412 | 5500 ft | 9 kts | 235° |
| 2026-04-21 18:16 | -26.24744 | 28.15348 | 5500 ft | 10 kts | 315° |
| 2026-04-21 18:16 | -26.24719 | 28.15336 | 5500 ft | 0 kts | 337° |
| 2026-04-21 18:16 | -26.24707 | 28.15330 | 5500 ft | 17 kts | 337° |
| 2026-04-21 18:16 | -26.24374 | 28.15173 | 5497 ft | 85 kts | 337° |
| 2026-04-21 18:17 | -26.23664 | 28.14842 | 5532 ft | 131 kts | 336° |
| 2026-04-21 18:17 | -26.22813 | 28.14322 | 5844 ft | 146 kts | 315° |
| 2026-04-21 18:17 | -26.22427 | 28.13269 | 6165 ft | 157 kts | 263° |
| 2026-04-21 18:17 | -26.22984 | 28.12259 | 6577 ft | 163 kts | 214° |
| 2026-04-21 18:18 | -26.24128 | 28.11943 | 6815 ft | 185 kts | 176° |
| 2026-04-21 18:18 | -26.25426 | 28.12198 | 7232 ft | 190 kts | 171° |
| 2026-04-21 18:18 | -26.26708 | 28.12508 | 7682 ft | 188 kts | 169° |
| 2026-04-21 18:18 | -26.27987 | 28.12844 | 8116 ft | 188 kts | 171° |
| 2026-04-21 18:19 | -26.29269 | 28.13118 | 8558 ft | 189 kts | 172° |
| 2026-04-21 18:19 | -26.30561 | 28.13394 | 8983 ft | 190 kts | 173° |
| 2026-04-21 18:19 | -26.31861 | 28.13682 | 9401 ft | 192 kts | 173° |
| 2026-04-21 18:19 | -26.33146 | 28.13658 | 9810 ft | 185 kts | 203° |
| 2026-04-21 18:20 | -26.34338 | 28.13119 | 10198 ft | 187 kts | 203° |
| 2026-04-21 18:20 | -26.35616 | 28.12776 | 10593 ft | 191 kts | 196° |
| 2026-04-21 18:20 | -26.36924 | 28.12518 | 11013 ft | 191 kts | 196° |
| 2026-04-21 18:20 | -26.38237 | 28.12254 | 11411 ft | 193 kts | 197° |
| 2026-04-21 18:21 | -26.39560 | 28.11982 | 11818 ft | 194 kts | 197° |
| 2026-04-21 18:21 | -26.40887 | 28.11710 | 12255 ft | 194 kts | 198° |
| 2026-04-21 18:21 | -26.42221 | 28.11434 | 12694 ft | 195 kts | 198° |
| 2026-04-21 18:21 | -26.43561 | 28.11159 | 13134 ft | 196 kts | 198° |
| 2026-04-21 18:22 | -26.44888 | 28.10887 | 13572 ft | 197 kts | 198° |
| 2026-04-21 18:22 | -26.46238 | 28.10609 | 14008 ft | 198 kts | 198° |
| 2026-04-21 18:22 | -26.47595 | 28.10330 | 14404 ft | 200 kts | 199° |
| 2026-04-21 18:22 | -26.48003 | 28.10247 | 14520 ft | 200 kts | 199° |
| 2026-04-21 18:23 | -26.49381 | 28.09964 | 14920 ft | 202 kts | 199° |
| 2026-04-21 18:23 | -26.50773 | 28.09677 | 15303 ft | 205 kts | 199° |
| 2026-04-21 18:23 | -26.52177 | 28.09388 | 15685 ft | 206 kts | 199° |
| 2026-04-21 18:23 | -26.53597 | 28.09096 | 16075 ft | 208 kts | 200° |
| 2026-04-21 18:24 | -26.55029 | 28.08801 | 16454 ft | 210 kts | 200° |
| 2026-04-21 18:24 | -26.56474 | 28.08504 | 16843 ft | 212 kts | 200° |
| 2026-04-21 18:24 | -26.57911 | 28.08208 | 17208 ft | 214 kts | 200° |
| 2026-04-21 18:24 | -26.59381 | 28.07905 | 17581 ft | 216 kts | 200° |
| 2026-04-21 18:25 | -26.60864 | 28.07600 | 17945 ft | 218 kts | 200° |
| 2026-04-21 18:25 | -26.62365 | 28.07290 | 18322 ft | 220 kts | 201° |
| 2026-04-21 18:25 | -26.63877 | 28.06978 | 18705 ft | 222 kts | 201° |
| 2026-04-21 18:25 | -26.65403 | 28.06664 | 19041 ft | 224 kts | 201° |
| 2026-04-21 18:26 | -26.66941 | 28.06346 | 19381 ft | 226 kts | 201° |
| 2026-04-21 18:26 | -26.68496 | 28.06026 | 19711 ft | 228 kts | 201° |
| 2026-04-21 18:26 | -26.70064 | 28.05701 | 20028 ft | 230 kts | 201° |
| 2026-04-21 18:26 | -26.71623 | 28.05380 | 20351 ft | 232 kts | 201° |
| 2026-04-21 18:27 | -26.73219 | 28.05051 | 20665 ft | 234 kts | 202° |
| 2026-04-21 18:27 | -26.74829 | 28.04718 | 20989 ft | 236 kts | 202° |
| 2026-04-21 18:27 | -26.76451 | 28.04383 | 21303 ft | 238 kts | 202° |
| 2026-04-21 18:27 | -26.78088 | 28.04045 | 21613 ft | 240 kts | 202° |
| 2026-04-21 18:28 | -26.79739 | 28.03704 | 21908 ft | 242 kts | 202° |
| 2026-04-21 18:28 | -26.81400 | 28.03360 | 22206 ft | 244 kts | 202° |
| 2026-04-21 18:28 | -26.83055 | 28.03018 | 22488 ft | 246 kts | 203° |
| 2026-04-21 18:28 | -26.84741 | 28.02669 | 22772 ft | 248 kts | 203° |
| 2026-04-21 18:29 | -26.86442 | 28.02317 | 23052 ft | 250 kts | 203° |
| 2026-04-21 18:29 | -26.88155 | 28.01962 | 23335 ft | 251 kts | 203° |
| 2026-04-21 18:29 | -26.89882 | 28.01605 | 23608 ft | 253 kts | 203° |
| 2026-04-21 18:29 | -26.91621 | 28.01245 | 23848 ft | 255 kts | 204° |
| 2026-04-21 18:30 | -26.93369 | 28.00882 | 24074 ft | 256 kts | 204° |
| 2026-04-21 18:30 | -26.95129 | 28.00518 | 24301 ft | 258 kts | 204° |
| 2026-04-21 18:30 | -26.96898 | 28.00151 | 24529 ft | 259 kts | 204° |
| 2026-04-21 18:30 | -26.98648 | 27.99788 | 24743 ft | 260 kts | 204° |
| 2026-04-21 18:31 | -27.00435 | 27.99417 | 24958 ft | 262 kts | 204° |
| 2026-04-21 18:31 | -27.02231 | 27.99045 | 25168 ft | 263 kts | 204° |
| 2026-04-21 18:31 | -27.04035 | 27.98670 | 25373 ft | 264 kts | 204° |
| 2026-04-21 18:31 | -27.05848 | 27.98293 | 25582 ft | 265 kts | 205° |
| 2026-04-21 18:32 | -27.07666 | 27.97915 | 25792 ft | 266 kts | 205° |
| 2026-04-21 18:32 | -27.09493 | 27.97533 | 25992 ft | 268 kts | 205° |
| 2026-04-21 18:32 | -27.11333 | 27.97156 | 26139 ft | 272 kts | 205° |
| 2026-04-21 18:32 | -27.13224 | 27.96754 | 26144 ft | 281 kts | 204° |
| 2026-04-21 18:33 | -27.15150 | 27.96348 | 26153 ft | 289 kts | 204° |
| 2026-04-21 18:33 | -27.17150 | 27.95936 | 26152 ft | 296 kts | 203° |
| 2026-04-21 18:33 | -27.19194 | 27.95515 | 26152 ft | 301 kts | 203° |
| 2026-04-21 18:33 | -27.21270 | 27.95082 | 26150 ft | 306 kts | 203° |
| 2026-04-21 18:34 | -27.23377 | 27.94642 | 26155 ft | 310 kts | 203° |
| 2026-04-21 18:34 | -27.25509 | 27.94199 | 26153 ft | 313 kts | 203° |
| 2026-04-21 18:34 | -27.27662 | 27.93751 | 26149 ft | 316 kts | 203° |
| 2026-04-21 18:34 | -27.29832 | 27.93298 | 26150 ft | 318 kts | 203° |
| 2026-04-21 18:35 | -27.31276 | 27.92997 | 26148 ft | 320 kts | 203° |
| 2026-04-21 18:35 | -27.34184 | 27.92390 | 26151 ft | 322 kts | 203° |
| 2026-04-21 18:35 | -27.36393 | 27.91930 | 26153 ft | 323 kts | 202° |
| 2026-04-21 18:35 | -27.38611 | 27.91467 | 26151 ft | 324 kts | 202° |
| 2026-04-21 18:36 | -27.40833 | 27.91003 | 26142 ft | 325 kts | 202° |
| 2026-04-21 18:36 | -27.43060 | 27.90537 | 26143 ft | 326 kts | 203° |
| 2026-04-21 18:36 | -27.45291 | 27.90069 | 26148 ft | 327 kts | 203° |
| 2026-04-21 18:36 | -27.47527 | 27.89602 | 26139 ft | 327 kts | 202° |
| 2026-04-21 18:37 | -27.49764 | 27.89135 | 26147 ft | 327 kts | 203° |
| 2026-04-21 18:37 | -27.52007 | 27.88664 | 26143 ft | 328 kts | 202° |
| 2026-04-21 18:37 | -27.54218 | 27.88201 | 26137 ft | 328 kts | 203° |
| 2026-04-21 18:37 | -27.56465 | 27.87730 | 26144 ft | 328 kts | 203° |
| 2026-04-21 18:38 | -27.58711 | 27.87259 | 26145 ft | 329 kts | 203° |
| 2026-04-21 18:38 | -27.60960 | 27.86787 | 26134 ft | 329 kts | 203° |
| 2026-04-21 18:38 | -27.63208 | 27.86316 | 26143 ft | 328 kts | 203° |
| 2026-04-21 18:38 | -27.65454 | 27.85845 | 26144 ft | 329 kts | 203° |
| 2026-04-21 18:39 | -27.67703 | 27.85371 | 26140 ft | 329 kts | 203° |
| 2026-04-21 18:39 | -27.69954 | 27.84898 | 26145 ft | 329 kts | 203° |
| 2026-04-21 18:39 | -27.72176 | 27.84432 | 26135 ft | 329 kts | 203° |
| 2026-04-21 18:39 | -27.74427 | 27.83958 | 26138 ft | 329 kts | 203° |
| 2026-04-21 18:40 | -27.76679 | 27.83485 | 26137 ft | 329 kts | 203° |
| 2026-04-21 18:40 | -27.78934 | 27.83010 | 26138 ft | 329 kts | 203° |
| 2026-04-21 18:40 | -27.80426 | 27.82696 | 26139 ft | 330 kts | 203° |
| 2026-04-21 18:40 | -27.83442 | 27.82060 | 26141 ft | 330 kts | 203° |
| 2026-04-21 18:41 | -27.85698 | 27.81585 | 26140 ft | 330 kts | 203° |
| 2026-04-21 18:41 | -27.87955 | 27.81109 | 26137 ft | 330 kts | 203° |
| 2026-04-21 18:41 | -27.90210 | 27.80633 | 26133 ft | 330 kts | 203° |
| 2026-04-21 18:41 | -27.92432 | 27.80165 | 26135 ft | 330 kts | 203° |
| 2026-04-21 18:42 | -27.94691 | 27.79688 | 26136 ft | 330 kts | 203° |
| 2026-04-21 18:42 | -27.96946 | 27.79212 | 26137 ft | 330 kts | 203° |
| 2026-04-21 18:42 | -27.99200 | 27.78735 | 26134 ft | 330 kts | 203° |
| 2026-04-21 18:42 | -28.01455 | 27.78258 | 26139 ft | 329 kts | 203° |
| 2026-04-21 18:43 | -28.03706 | 27.77784 | 26134 ft | 329 kts | 203° |
| 2026-04-21 18:43 | -28.05958 | 27.77306 | 26135 ft | 329 kts | 203° |
| 2026-04-21 18:43 | -28.08209 | 27.76829 | 26137 ft | 329 kts | 203° |
| 2026-04-21 18:43 | -28.10463 | 27.76353 | 26135 ft | 329 kts | 203° |
| 2026-04-21 18:44 | -28.12685 | 27.75882 | 26136 ft | 329 kts | 203° |
| 2026-04-21 18:44 | -28.14932 | 27.75407 | 26133 ft | 328 kts | 203° |
| 2026-04-21 18:44 | -28.17174 | 27.74930 | 26135 ft | 328 kts | 204° |
| 2026-04-21 18:44 | -28.19424 | 27.74453 | 26132 ft | 328 kts | 204° |
| 2026-04-21 18:45 | -28.21669 | 27.73976 | 26132 ft | 329 kts | 204° |
| 2026-04-21 18:45 | -28.23916 | 27.73500 | 26131 ft | 329 kts | 204° |
| 2026-04-21 18:45 | -28.26166 | 27.73022 | 26134 ft | 329 kts | 204° |
| 2026-04-21 18:45 | -28.28413 | 27.72544 | 26133 ft | 329 kts | 204° |
| 2026-04-21 18:46 | -28.30632 | 27.72073 | 26123 ft | 329 kts | 204° |
| 2026-04-21 18:46 | -28.32881 | 27.71594 | 25908 ft | 331 kts | 204° |
| 2026-04-21 18:46 | -28.35168 | 27.71101 | 25499 ft | 339 kts | 203° |
| 2026-04-21 18:46 | -28.37512 | 27.70599 | 25066 ft | 346 kts | 202° |
| 2026-04-21 18:47 | -28.39897 | 27.70096 | 24648 ft | 351 kts | 202° |
| 2026-04-21 18:47 | -28.42312 | 27.69585 | 24234 ft | 355 kts | 202° |
| 2026-04-21 18:47 | -28.44745 | 27.69066 | 23823 ft | 357 kts | 202° |
| 2026-04-21 18:47 | -28.47191 | 27.68544 | 23350 ft | 357 kts | 202° |
| 2026-04-21 18:48 | -28.49634 | 27.68025 | 22871 ft | 357 kts | 201° |
| 2026-04-21 18:48 | -28.52044 | 27.67510 | 22395 ft | 357 kts | 201° |
| 2026-04-21 18:48 | -28.54479 | 27.66980 | 21920 ft | 356 kts | 201° |
| 2026-04-21 18:48 | -28.56906 | 27.66442 | 21453 ft | 356 kts | 201° |
| 2026-04-21 18:49 | -28.59337 | 27.65911 | 20998 ft | 355 kts | 201° |
| 2026-04-21 18:49 | -28.61762 | 27.65384 | 20546 ft | 355 kts | 200° |
| 2026-04-21 18:49 | -28.63368 | 27.65034 | 20250 ft | 354 kts | 200° |
| 2026-04-21 18:49 | -28.66593 | 27.64328 | 19662 ft | 352 kts | 200° |
| 2026-04-21 18:50 | -28.68960 | 27.63812 | 19232 ft | 350 kts | 200° |
| 2026-04-21 18:50 | -28.71347 | 27.63287 | 18803 ft | 349 kts | 200° |
| 2026-04-21 18:50 | -28.73728 | 27.62765 | 18374 ft | 348 kts | 199° |
| 2026-04-21 18:50 | -28.76095 | 27.62249 | 17883 ft | 346 kts | 199° |
| 2026-04-21 18:51 | -28.78457 | 27.61730 | 17396 ft | 344 kts | 199° |
| 2026-04-21 18:51 | -28.80804 | 27.61215 | 16920 ft | 343 kts | 199° |
| 2026-04-21 18:51 | -28.83142 | 27.60702 | 16447 ft | 341 kts | 198° |
| 2026-04-21 18:51 | -28.85465 | 27.60192 | 15989 ft | 340 kts | 198° |
| 2026-04-21 18:52 | -28.87784 | 27.59683 | 15533 ft | 338 kts | 198° |
| 2026-04-21 18:52 | -28.90093 | 27.59176 | 15087 ft | 337 kts | 198° |
| 2026-04-21 18:52 | -28.92351 | 27.58679 | 14643 ft | 335 kts | 197° |
| 2026-04-21 18:52 | -28.94641 | 27.58173 | 14213 ft | 334 kts | 197° |
| 2026-04-21 18:53 | -28.96917 | 27.57675 | 13757 ft | 332 kts | 197° |
| 2026-04-21 18:53 | -28.99170 | 27.57181 | 13272 ft | 328 kts | 197° |
| 2026-04-21 18:53 | -29.01404 | 27.56688 | 12791 ft | 326 kts | 197° |
| 2026-04-21 18:53 | -29.03619 | 27.56198 | 12316 ft | 322 kts | 197° |
| 2026-04-21 18:54 | -29.05800 | 27.55718 | 11700 ft | 313 kts | 196° |
| 2026-04-21 18:54 | -29.07902 | 27.55259 | 11077 ft | 302 kts | 196° |
| 2026-04-21 18:54 | -29.09912 | 27.54814 | 10468 ft | 294 kts | 196° |
| 2026-04-21 18:54 | -29.11895 | 27.54374 | 9847 ft | 287 kts | 195° |
| 2026-04-21 18:55 | -29.13211 | 27.54086 | 9402 ft | 283 kts | 194° |
| 2026-04-21 18:55 | -29.15688 | 27.53543 | 9116 ft | 259 kts | 194° |
| 2026-04-21 18:55 | -29.17383 | 27.53175 | 9106 ft | 238 kts | 195° |
| 2026-04-21 18:55 | -29.18946 | 27.52828 | 9106 ft | 220 kts | 195° |
| 2026-04-21 18:56 | -29.20401 | 27.52504 | 9103 ft | 206 kts | 195° |
| 2026-04-21 18:56 | -29.21768 | 27.52202 | 9100 ft | 194 kts | 195° |
| 2026-04-21 18:56 | -29.23084 | 27.51920 | 8933 ft | 194 kts | 194° |
| 2026-04-21 18:56 | -29.24446 | 27.51692 | 8649 ft | 200 kts | 191° |
| 2026-04-21 18:57 | -29.25813 | 27.51579 | 8380 ft | 202 kts | 177° |
| 2026-04-21 18:57 | -29.27200 | 27.51977 | 8012 ft | 207 kts | 167° |
| 2026-04-21 18:57 | -29.28609 | 27.52325 | 7633 ft | 210 kts | 173° |
| 2026-04-21 18:57 | -29.30077 | 27.52486 | 7221 ft | 213 kts | 180° |
| 2026-04-21 18:58 | -29.31535 | 27.52638 | 6993 ft | 205 kts | 158° |
| 2026-04-21 18:58 | -29.32391 | 27.53726 | 6920 ft | 181 kts | 103° |
| 2026-04-21 18:58 | -29.32301 | 27.55093 | 6657 ft | 171 kts | 60° |
| 2026-04-21 18:58 | -29.31517 | 27.56012 | 6435 ft | 157 kts | 26° |
| 2026-04-21 18:59 | -29.30509 | 27.56244 | 6214 ft | 146 kts | 353° |
| 2026-04-21 18:59 | -29.29515 | 27.55916 | 6119 ft | 150 kts | 335° |
| 2026-04-21 18:59 | -29.28662 | 27.55245 | 6022 ft | 156 kts | 317° |
| 2026-04-21 18:59 | -29.27938 | 27.54310 | 5910 ft | 157 kts | 308° |
| 2026-04-21 19:00 | -29.27529 | 27.53172 | 5829 ft | 157 kts | 277° |
| 2026-04-21 19:00 | -29.27751 | 27.51994 | 5763 ft | 149 kts | 237° |
| 2026-04-21 19:00 | -29.28466 | 27.51162 | 5459 ft | 144 kts | 215° |
| 2026-04-21 19:00 | -29.29349 | 27.50690 | 5216 ft | 137 kts | 200° |
| 2026-04-21 19:01 | -29.30198 | 27.50325 | 5123 ft | 119 kts | 201° |
| 2026-04-21 19:01 | -29.31057 | 27.49951 | 5199 ft | 150 kts | 196° |
| 2026-04-21 19:01 | -29.32144 | 27.49884 | 5522 ft | 168 kts | 166° |
| 2026-04-21 19:01 | -29.33181 | 27.50565 | 5843 ft | 179 kts | 129° |
| 2026-04-21 19:02 | -29.33651 | 27.51878 | 6123 ft | 185 kts | 89° |
| 2026-04-21 19:02 | -29.33275 | 27.53277 | 6371 ft | 189 kts | 54° |
| 2026-04-21 19:02 | -29.32363 | 27.54406 | 6575 ft | 195 kts | 34° |
| 2026-04-21 19:02 | -29.31186 | 27.55150 | 6669 ft | 193 kts | 24° |
| 2026-04-21 19:03 | -29.29960 | 27.55762 | 6671 ft | 194 kts | 20° |
| 2026-04-21 19:03 | -29.28670 | 27.56297 | 6575 ft | 198 kts | 16° |
| 2026-04-21 19:03 | -29.27400 | 27.56275 | 6537 ft | 177 kts | 334° |
| 2026-04-21 19:03 | -29.26571 | 27.55254 | 6145 ft | 179 kts | 297° |
| 2026-04-21 19:04 | -29.26349 | 27.53980 | 6014 ft | 155 kts | 265° |
| 2026-04-21 19:04 | -29.26690 | 27.52874 | 5787 ft | 145 kts | 243° |
| 2026-04-21 19:04 | -29.27293 | 27.51954 | 5611 ft | 145 kts | 221° |
| 2026-04-21 19:04 | -29.28094 | 27.51308 | 5436 ft | 137 kts | 208° |
| 2026-04-21 19:05 | -29.28955 | 27.50867 | 5277 ft | 133 kts | 200° |
| 2026-04-21 19:05 | -29.29773 | 27.50513 | 5127 ft | 118 kts | 201° |
| 2026-04-21 19:05 | -29.30350 | 27.50258 | 5121 ft | 47 kts | 201° |
| 2026-04-21 19:05 | -29.30510 | 27.50182 | 5117 ft | 10 kts | 238° |
| 2026-04-21 19:06 | -29.30485 | 27.50121 | 5115 ft | 7 kts | 304° |
| 2026-04-21 19:06 | -29.30468 | 27.50091 | 5115 ft | 4 kts | 303° |
| 2026-04-21 19:06 | -29.30434 | 27.50096 | 5116 ft | 5 kts | 49° |
| 2026-04-21 19:06 | -29.30432 | 27.50104 | 5117 ft | 0 kts | 116° |